Time;durP1;ratioP1;P1;durP2;ratioP2;P2;SDS_P1;SDS_P2;PMS_P1;PMS_P2;Temp;Humidity;BMP_temperature;BMP_pressure;BME280_temperature;BME280_humidity;BME280_pressure;Samples;Min_cycle;Max_cycle;Signal;HPM_P1;HPM_P2
2023/07/03 00:00:22;;;;;;;15.07;6.57;;;;;;;;;;5051521;28;20070;-62
2023/07/03 00:02:49;;;;;;;13.80;6.60;;;;;;;;;;5042126;28;20022;-63
2023/07/03 00:05:16;;;;;;;14.38;6.82;;;;;;;;;;5032796;28;20381;-62
2023/07/03 00:07:41;;;;;;;13.73;6.65;;;;;;;;;;5042605;28;20049;-63
2023/07/03 00:10:06;;;;;;;15.05;6.10;;;;;;;;;;5039093;28;20053;-64
2023/07/03 00:12:32;;;;;;;12.65;5.80;;;;;;;;;;5047981;28;20036;-62
2023/07/03 00:14:57;;;;;;;15.27;6.83;;;;;;;;;;5051432;28;20021;-63
2023/07/03 00:17:22;;;;;;;11.95;6.28;;;;;;;;;;5052675;28;20547;-62
2023/07/03 00:19:48;;;;;;;13.60;6.72;;;;;;;;;;5033123;28;20029;-63
2023/07/03 00:22:14;;;;;;;14.55;6.68;;;;;;;;;;5037642;28;20025;-61
2023/07/03 00:24:39;;;;;;;14.60;6.82;;;;;;;;;;5050231;28;20059;-59
2023/07/03 00:27:05;;;;;;;13.35;7.20;;;;;;;;;;5049453;28;20032;-62
2023/07/03 00:29:31;;;;;;;13.32;6.63;;;;;;;;;;5045705;28;20476;-61
2023/07/03 00:31:56;;;;;;;13.57;6.65;;;;;;;;;;5037043;28;20819;-62
2023/07/03 00:34:21;;;;;;;16.20;6.88;;;;;;;;;;5031796;28;20104;-62
2023/07/03 00:36:47;;;;;;;14.85;6.65;;;;;;;;;;5032420;28;20060;-62
2023/07/03 00:39:12;;;;;;;14.73;6.75;;;;;;;;;;5039209;28;20033;-62
2023/07/03 00:41:38;;;;;;;14.63;6.50;;;;;;;;;;5047939;28;20029;-62
2023/07/03 00:44:03;;;;;;;15.45;6.72;;;;;;;;;;5041079;28;20025;-63
2023/07/03 00:46:28;;;;;;;15.27;7.00;;;;;;;;;;5040893;28;20415;-62
2023/07/03 00:48:54;;;;;;;14.63;6.55;;;;;;;;;;5031744;28;20441;-63
2023/07/03 00:51:19;;;;;;;13.27;6.32;;;;;;;;;;5032804;28;20030;-63
2023/07/03 00:53:44;;;;;;;12.10;6.00;;;;;;;;;;5034894;28;20075;-63
2023/07/03 00:56:10;;;;;;;13.63;6.50;;;;;;;;;;5041488;28;20028;-62
2023/07/03 00:58:35;;;;;;;14.10;6.47;;;;;;;;;;5048550;28;20165;-63
2023/07/03 01:01:09;;;;;;;13.90;6.33;;;;;;;;;;5041835;28;20060;-61
2023/07/03 01:03:37;;;;;;;15.73;6.93;;;;;;;;;;5040664;28;20106;-62
2023/07/03 01:06:03;;;;;;;14.15;6.38;;;;;;;;;;5033663;28;20021;-62
2023/07/03 01:08:29;;;;;;;13.10;6.53;;;;;;;;;;5040813;28;20021;-63
2023/07/03 01:10:54;;;;;;;13.45;6.30;;;;;;;;;;5037182;28;20017;-61
2023/07/03 01:13:21;;;;;;;13.23;7.00;;;;;;;;;;5045103;28;20388;-62
2023/07/03 01:15:47;;;;;;;13.25;6.82;;;;;;;;;;5040939;28;20366;-62
2023/07/03 01:18:13;;;;;;;13.05;6.93;;;;;;;;;;5037390;28;20060;-61
2023/07/03 01:20:41;;;;;;;15.30;7.30;;;;;;;;;;5031788;28;20370;-62
2023/07/03 01:23:13;;;;;;;14.10;6.90;;;;;;;;;;5039120;28;20035;-63
2023/07/03 01:25:38;;;;;;;;;;;;;;;;;;5036220;28;20022;-62
2023/07/03 01:28:05;;;;;;;14.23;6.45;;;;;;;;;;5036719;28;19962;-62
2023/07/03 01:30:31;;;;;;;15.30;6.75;;;;;;;;;;5037122;28;20065;-63
2023/07/03 01:32:57;;;;;;;15.80;6.55;;;;;;;;;;5044108;28;20067;-63
2023/07/03 01:35:23;;;;;;;13.20;6.50;;;;;;;;;;5042286;28;20018;-63
2023/07/03 01:37:49;;;;;;;15.35;6.68;;;;;;;;;;5041029;28;20511;-62
2023/07/03 01:40:18;;;;;;;14.88;6.57;;;;;;;;;;5037446;28;20480;-61
2023/07/03 01:42:44;;;;;;;14.55;6.65;;;;;;;;;;5033734;28;20096;-62
2023/07/03 01:45:09;;;;;;;13.60;6.88;;;;;;;;;;5039530;28;20463;-61
2023/07/03 01:47:36;;;;;;;19.15;7.55;;;;;;;;;;5039267;28;20029;-63
2023/07/03 01:50:01;;;;;;;;;;;;;;;;;;5031848;28;20033;-62
2023/07/03 01:52:35;;;;;;;13.30;6.72;;;;;;;;;;5030307;28;19932;-61
2023/07/03 01:55:13;;;;;;;13.10;6.50;;;;;;;;;;5032320;28;20029;-63
2023/07/03 01:57:44;;;;;;;14.30;6.63;;;;;;;;;;5030968;28;20101;-61
2023/07/03 02:00:12;;;;;;;13.02;6.65;;;;;;;;;;5043753;28;20028;-63
2023/07/03 02:02:39;;;;;;;18.55;7.15;;;;;;;;;;5047266;28;20099;-61
2023/07/03 02:05:10;;;;;;;13.45;6.45;;;;;;;;;;5047858;28;20120;-62
2023/07/03 02:07:35;;;;;;;14.80;6.90;;;;;;;;;;5030378;28;20189;-62
2023/07/03 02:10:02;;;;;;;14.35;7.55;;;;;;;;;;5031090;28;20388;-61
2023/07/03 02:12:27;;;;;;;16.45;6.72;;;;;;;;;;5037533;28;20518;-60
2023/07/03 02:14:53;;;;;;;14.75;6.72;;;;;;;;;;5049879;28;20028;-62
2023/07/03 02:17:19;;;;;;;13.93;6.75;;;;;;;;;;5031599;28;20033;-63
2023/07/03 02:19:44;;;;;;;14.43;6.60;;;;;;;;;;5030579;28;20028;-62
2023/07/03 02:22:09;;;;;;;14.02;6.60;;;;;;;;;;5035004;28;20028;-62
2023/07/03 02:24:34;;;;;;;14.95;6.95;;;;;;;;;;5048255;28;20038;-62
2023/07/03 02:27:01;;;;;;;15.38;6.65;;;;;;;;;;5033631;28;20029;-63
2023/07/03 02:29:26;;;;;;;14.27;6.80;;;;;;;;;;5043083;28;20104;-61
2023/07/03 02:31:51;;;;;;;17.02;7.03;;;;;;;;;;5046559;28;20064;-63
2023/07/03 02:34:16;;;;;;;13.70;6.73;;;;;;;;;;5044158;28;20044;-60
2023/07/03 02:36:41;;;;;;;14.10;6.77;;;;;;;;;;5032812;28;20064;-61
2023/07/03 02:39:07;;;;;;;16.37;7.03;;;;;;;;;;5039392;28;20025;-61
2023/07/03 02:41:35;;;;;;;15.50;6.50;;;;;;;;;;5030356;28;20167;-62
2023/07/03 02:44:00;;;;;;;15.65;7.07;;;;;;;;;;5031034;28;20049;-61
2023/07/03 02:46:26;;;;;;;17.33;7.40;;;;;;;;;;5049569;28;20412;-63
2023/07/03 02:48:51;;;;;;;15.07;7.10;;;;;;;;;;5039408;28;20024;-63
2023/07/03 02:51:16;;;;;;;15.43;6.80;;;;;;;;;;5039768;28;20414;-62
2023/07/03 02:53:41;;;;;;;15.60;7.03;;;;;;;;;;5053436;28;20029;-63
2023/07/03 02:56:07;;;;;;;14.63;7.13;;;;;;;;;;5044563;28;20448;-62
2023/07/03 02:58:32;;;;;;;14.82;6.70;;;;;;;;;;5047339;28;20037;-61
2023/07/03 03:00:57;;;;;;;15.25;6.57;;;;;;;;;;5040020;28;20052;-62
2023/07/03 03:03:23;;;;;;;13.98;6.53;;;;;;;;;;5044904;28;20034;-61
2023/07/03 03:05:48;;;;;;;16.60;7.10;;;;;;;;;;5034512;28;20053;-62
2023/07/03 03:08:13;;;;;;;14.73;7.50;;;;;;;;;;5052829;28;20392;-63
2023/07/03 03:10:38;;;;;;;15.47;6.70;;;;;;;;;;5054031;28;20056;-62
2023/07/03 03:13:04;;;;;;;13.47;6.73;;;;;;;;;;5051756;28;20689;-63
2023/07/03 03:15:30;;;;;;;16.42;6.90;;;;;;;;;;5052872;28;20025;-62
2023/07/03 03:17:55;;;;;;;13.75;6.53;;;;;;;;;;5051493;28;20071;-61
2023/07/03 03:20:20;;;;;;;16.10;7.13;;;;;;;;;;5042738;28;20025;-62
2023/07/03 03:22:45;;;;;;;16.45;7.38;;;;;;;;;;5033442;28;20048;-63
2023/07/03 03:25:10;;;;;;;16.48;7.13;;;;;;;;;;5037882;28;20065;-62
2023/07/03 03:27:35;;;;;;;13.98;7.55;;;;;;;;;;5044921;28;20412;-63
2023/07/03 03:30:01;;;;;;;14.70;7.00;;;;;;;;;;5033720;28;20056;-62
2023/07/03 03:32:26;;;;;;;12.90;6.53;;;;;;;;;;5046338;28;20059;-63
2023/07/03 03:34:51;;;;;;;14.98;6.90;;;;;;;;;;5054048;28;20021;-62
2023/07/03 03:37:17;;;;;;;16.40;7.35;;;;;;;;;;5053613;28;20025;-64
2023/07/03 03:39:42;;;;;;;15.10;7.20;;;;;;;;;;5053552;28;20488;-62
2023/07/03 03:42:09;;;;;;;16.02;7.07;;;;;;;;;;5053283;28;20023;-62
2023/07/03 03:44:34;;;;;;;16.05;6.88;;;;;;;;;;5053304;28;20400;-63
2023/07/03 03:47:00;;;;;;;15.80;7.57;;;;;;;;;;5056233;28;20461;-62
2023/07/03 03:49:25;;;;;;;16.83;7.23;;;;;;;;;;5051065;28;20096;-62
2023/07/03 03:51:50;;;;;;;14.68;6.90;;;;;;;;;;5063313;28;20103;-63
2023/07/03 03:54:15;;;;;;;15.77;7.73;;;;;;;;;;5062839;28;20021;-63
2023/07/03 03:56:40;;;;;;;16.13;7.40;;;;;;;;;;5067228;28;20286;-62
2023/07/03 03:59:05;;;;;;;14.75;6.82;;;;;;;;;;5065806;28;20024;-62
2023/07/03 04:01:33;;;;;;;15.67;7.60;;;;;;;;;;5054047;28;20017;-63
2023/07/03 04:03:58;;;;;;;17.25;7.07;;;;;;;;;;5065555;28;20028;-61
2023/07/03 04:06:23;;;;;;;17.40;6.55;;;;;;;;;;5052599;28;20028;-62
2023/07/03 04:08:48;;;;;;;18.52;6.97;;;;;;;;;;5048319;28;20029;-61
2023/07/03 04:11:13;;;;;;;16.30;8.37;;;;;;;;;;5053222;28;20416;-63
2023/07/03 04:13:38;;;;;;;14.23;6.80;;;;;;;;;;5052357;28;20100;-63
2023/07/03 04:16:04;;;;;;;16.87;7.07;;;;;;;;;;5045591;28;20021;-62
2023/07/03 04:18:30;;;;;;;12.68;6.38;;;;;;;;;;5038175;28;20021;-60
2023/07/03 04:20:55;;;;;;;14.38;6.80;;;;;;;;;;5057360;28;20179;-61
2023/07/03 04:23:21;;;;;;;16.63;7.43;;;;;;;;;;5036022;28;20100;-63
2023/07/03 04:25:46;;;;;;;14.13;6.47;;;;;;;;;;5035541;28;20532;-62
2023/07/03 04:28:12;;;;;;;14.65;7.15;;;;;;;;;;5046772;28;20677;-62
2023/07/03 04:30:37;;;;;;;18.15;7.97;;;;;;;;;;5037685;28;20353;-63
2023/07/03 04:33:03;;;;;;;14.32;7.00;;;;;;;;;;5041898;28;20017;-62
2023/07/03 04:35:29;;;;;;;16.58;7.78;;;;;;;;;;5038398;28;20032;-61
2023/07/03 04:37:54;;;;;;;;;;;;;;;;;;5041976;28;20037;-62
2023/07/03 04:40:20;;;;;;;15.90;7.05;;;;;;;;;;5037290;28;19920;-61
2023/07/03 04:42:45;;;;;;;16.73;7.07;;;;;;;;;;5044845;28;20652;-61
2023/07/03 04:45:10;;;;;;;14.93;6.97;;;;;;;;;;5033555;28;20041;-62
2023/07/03 04:47:39;;;;;;;16.93;7.87;;;;;;;;;;5032775;28;20392;-62
2023/07/03 04:50:05;;;;;;;16.15;7.20;;;;;;;;;;5028890;28;20440;-62
2023/07/03 04:52:30;;;;;;;;;;;;;;;;;;5038854;28;20029;-62
2023/07/03 04:54:55;;;;;;;13.20;6.63;;;;;;;;;;5040052;28;19961;-62
2023/07/03 04:57:20;;;;;;;18.50;7.93;;;;;;;;;;5037308;28;20397;-61
2023/07/03 04:59:46;;;;;;;15.83;7.17;;;;;;;;;;5030294;28;20025;-61
2023/07/03 05:02:13;;;;;;;;;;;;;;;;;;5046829;28;20025;-61
2023/07/03 05:04:38;;;;;;;15.80;6.82;;;;;;;;;;5038584;28;19917;-63
2023/07/03 05:07:03;;;;;;;15.77;7.43;;;;;;;;;;5047302;28;20033;-61
2023/07/03 05:09:29;;;;;;;19.33;7.90;;;;;;;;;;5068384;28;20085;-62
2023/07/03 05:11:54;;;;;;;15.53;7.37;;;;;;;;;;5048513;28;20020;-62
2023/07/03 05:14:19;;;;;;;15.45;7.30;;;;;;;;;;5027575;28;20653;-61
2023/07/03 05:16:44;;;;;;;15.35;7.30;;;;;;;;;;5034628;28;20458;-63
2023/07/03 05:19:10;;;;;;;17.88;8.35;;;;;;;;;;5034038;28;20041;-63
2023/07/03 05:21:35;;;;;;;17.53;7.90;;;;;;;;;;5034061;28;20057;-67
2023/07/03 05:24:00;;;;;;;19.58;7.90;;;;;;;;;;5048455;28;20110;-66
2023/07/03 05:26:25;;;;;;;17.00;7.67;;;;;;;;;;5044131;28;20022;-65
2023/07/03 05:28:50;;;;;;;15.17;7.50;;;;;;;;;;5043455;28;20418;-65
2023/07/03 05:31:15;;;;;;;19.90;7.10;;;;;;;;;;5045594;28;20030;-67
2023/07/03 05:33:41;;;;;;;15.20;7.80;;;;;;;;;;5049222;28;20031;-67
2023/07/03 05:36:06;;;;;;;18.67;8.40;;;;;;;;;;5039458;28;20029;-65
2023/07/03 05:38:31;;;;;;;15.03;7.20;;;;;;;;;;5050007;28;20036;-66
2023/07/03 05:40:57;;;;;;;16.65;7.32;;;;;;;;;;5050717;28;20060;-67
2023/07/03 05:43:22;;;;;;;16.27;7.47;;;;;;;;;;5048896;28;20070;-66
2023/07/03 05:45:48;;;;;;;17.15;7.55;;;;;;;;;;5047875;28;20034;-65
2023/07/03 05:48:13;;;;;;;18.17;7.50;;;;;;;;;;5031042;28;20072;-63
2023/07/03 05:50:38;;;;;;;15.70;7.00;;;;;;;;;;5031349;28;20021;-66
2023/07/03 05:53:03;;;;;;;18.50;7.85;;;;;;;;;;5040431;28;20110;-65
2023/07/03 05:55:28;;;;;;;15.52;7.05;;;;;;;;;;5029396;28;20087;-65
2023/07/03 05:57:54;;;;;;;19.60;7.55;;;;;;;;;;5043536;28;20028;-67
2023/07/03 06:00:19;;;;;;;18.37;7.20;;;;;;;;;;5051473;28;20028;-61
2023/07/03 06:02:44;;;;;;;15.50;7.20;;;;;;;;;;5030814;28;20025;-61
2023/07/03 06:05:11;;;;;;;17.10;7.82;;;;;;;;;;5031563;28;20464;-61
2023/07/03 06:07:36;;;;;;;16.70;7.43;;;;;;;;;;5031289;28;20028;-64
2023/07/03 06:10:02;;;;;;;18.73;7.32;;;;;;;;;;5036927;28;20013;-62
2023/07/03 06:12:29;;;;;;;18.50;7.07;;;;;;;;;;5047079;28;20096;-62
2023/07/03 06:14:57;;;;;;;18.65;7.05;;;;;;;;;;5050518;28;20024;-63
2023/07/03 06:17:23;;;;;;;17.20;7.35;;;;;;;;;;5035968;28;20030;-62
2023/07/03 06:19:49;;;;;;;;;;;;;;;;;;5043265;28;20100;-62
2023/07/03 06:22:14;;;;;;;13.57;6.72;;;;;;;;;;5046189;28;19936;-61
2023/07/03 06:24:39;;;;;;;14.63;7.57;;;;;;;;;;5057193;28;20032;-62
2023/07/03 06:27:06;;;;;;;16.30;7.10;;;;;;;;;;5070989;28;20025;-61
2023/07/03 06:29:31;;;;;;;16.92;6.93;;;;;;;;;;5072893;28;20033;-61
2023/07/03 06:31:56;;;;;;;17.55;6.70;;;;;;;;;;5052277;28;20029;-63
2023/07/03 06:34:21;;;;;;;14.90;6.57;;;;;;;;;;5050626;28;20045;-63
2023/07/03 06:36:47;;;;;;;16.45;6.47;;;;;;;;;;5038430;28;20041;-62
2023/07/03 06:39:12;;;;;;;18.67;7.15;;;;;;;;;;5030694;28;20433;-62
2023/07/03 06:41:37;;;;;;;16.67;6.63;;;;;;;;;;5029908;28;20041;-62
2023/07/03 06:44:03;;;;;;;15.07;6.63;;;;;;;;;;5037476;28;20021;-62
2023/07/03 06:46:28;;;;;;;15.73;6.50;;;;;;;;;;5040969;28;20014;-63
2023/07/03 06:48:55;;;;;;;16.23;6.37;;;;;;;;;;5044674;28;20009;-62
2023/07/03 06:51:20;;;;;;;14.90;6.07;;;;;;;;;;5049721;28;20671;-62
2023/07/03 06:53:45;;;;;;;15.55;6.05;;;;;;;;;;5049812;28;20021;-63
2023/07/03 06:56:10;;;;;;;15.07;6.40;;;;;;;;;;5049273;28;20025;-61
2023/07/03 06:58:35;;;;;;;15.70;5.80;;;;;;;;;;5041757;28;20540;-64
2023/07/03 07:01:07;;;;;;;15.60;6.50;;;;;;;;;;5041199;28;20017;-64
2023/07/03 07:03:32;;;;;;;;;;;;;;;;;;5042917;28;20070;-63
2023/07/03 07:05:57;;;;;;;12.32;4.35;;;;;;;;;;5042876;28;20011;-62
2023/07/03 07:08:23;;;;;;;18.47;6.63;;;;;;;;;;5032368;28;20020;-62
2023/07/03 07:10:48;;;;;;;14.00;5.57;;;;;;;;;;5049828;28;20381;-63
2023/07/03 07:13:13;;;;;;;13.13;4.65;;;;;;;;;;5049431;28;20536;-63
2023/07/03 07:15:39;;;;;;;13.43;4.67;;;;;;;;;;5048260;28;20021;-62
2023/07/03 07:18:04;;;;;;;;;;;;;;;;;;5030332;28;21742;-62
2023/07/03 07:20:29;;;;;;;12.57;4.88;;;;;;;;;;5030292;28;20301;-63
2023/07/03 07:22:55;;;;;;;14.87;5.10;;;;;;;;;;5040353;28;20547;-61
2023/07/03 07:25:20;;;;;;;14.07;5.28;;;;;;;;;;5048086;28;20111;-63
2023/07/03 07:27:45;;;;;;;14.93;4.57;;;;;;;;;;5041994;28;20017;-64
2023/07/03 07:30:10;;;;;;;14.30;5.03;;;;;;;;;;5036573;28;20104;-62
2023/07/03 07:32:36;;;;;;;13.15;4.50;;;;;;;;;;5040736;28;20507;-62
2023/07/03 07:35:01;;;;;;;16.15;5.55;;;;;;;;;;5044104;28;20021;-61
2023/07/03 07:37:26;;;;;;;14.77;5.13;;;;;;;;;;5052683;28;20025;-61
2023/07/03 07:39:51;;;;;;;14.50;4.97;;;;;;;;;;5049395;28;20024;-64
2023/07/03 07:42:16;;;;;;;15.48;5.38;;;;;;;;;;5048057;28;20013;-63
2023/07/03 07:44:41;;;;;;;14.87;5.17;;;;;;;;;;5040329;28;20171;-62
2023/07/03 07:47:09;;;;;;;13.23;4.78;;;;;;;;;;5050622;28;20023;-62
2023/07/03 07:49:35;;;;;;;16.63;5.32;;;;;;;;;;5037639;28;20054;-63
2023/07/03 07:52:00;;;;;;;;;;;;;;;;;;5052785;28;20009;-64
2023/07/03 07:54:25;;;;;;;14.30;4.43;;;;;;;;;;5035023;28;19909;-61
2023/07/03 07:56:50;;;;;;;13.65;4.63;;;;;;;;;;5052944;28;20072;-64
2023/07/03 07:59:16;;;;;;;14.07;4.47;;;;;;;;;;5042124;28;20444;-61
2023/07/03 08:01:41;;;;;;;11.32;4.32;;;;;;;;;;5050782;28;20028;-64
2023/07/03 08:04:06;;;;;;;13.00;4.68;;;;;;;;;;5052670;28;20060;-63
2023/07/03 08:06:32;;;;;;;15.00;4.72;;;;;;;;;;5053225;28;20063;-63
2023/07/03 08:08:57;;;;;;;14.83;5.40;;;;;;;;;;5049213;28;21497;-63
2023/07/03 08:11:24;;;;;;;14.07;5.03;;;;;;;;;;5049433;28;20455;-62
2023/07/03 08:13:49;;;;;;;14.65;4.90;;;;;;;;;;5048681;28;20033;-63
2023/07/03 08:16:15;;;;;;;15.32;4.57;;;;;;;;;;5048765;28;20039;-63
2023/07/03 08:18:40;;;;;;;12.57;4.72;;;;;;;;;;5046247;28;20028;-62
2023/07/03 08:21:05;;;;;;;15.73;4.50;;;;;;;;;;5046422;28;20051;-60
2023/07/03 08:23:31;;;;;;;14.27;4.77;;;;;;;;;;5052121;28;20496;-61
2023/07/03 08:25:56;;;;;;;13.57;4.63;;;;;;;;;;5044927;28;20025;-63
2023/07/03 08:28:22;;;;;;;14.53;4.90;;;;;;;;;;5046895;28;20384;-62
2023/07/03 08:30:47;;;;;;;12.02;4.07;;;;;;;;;;5049180;28;20502;-63
2023/07/03 08:33:12;;;;;;;14.67;4.30;;;;;;;;;;5034402;28;20484;-64
2023/07/03 08:35:39;;;;;;;14.27;4.72;;;;;;;;;;5041429;28;20064;-61
2023/07/03 08:38:04;;;;;;;12.32;4.65;;;;;;;;;;5032785;28;20101;-62
2023/07/03 08:40:29;;;;;;;11.15;4.15;;;;;;;;;;5032853;28;20112;-62
2023/07/03 08:42:56;;;;;;;13.60;4.30;;;;;;;;;;5030600;28;20066;-62
2023/07/03 08:45:23;;;;;;;14.20;4.72;;;;;;;;;;5042678;28;20037;-63
2023/07/03 08:47:49;;;;;;;13.68;4.85;;;;;;;;;;5043617;28;20372;-62
2023/07/03 08:50:16;;;;;;;13.98;4.60;;;;;;;;;;5035413;28;20029;-63
2023/07/03 08:52:44;;;;;;;9.88;3.80;;;;;;;;;;5039235;28;20024;-62
2023/07/03 08:55:12;;;;;;;12.70;4.05;;;;;;;;;;5038454;28;20025;-62
2023/07/03 08:57:38;;;;;;;13.10;4.13;;;;;;;;;;5041943;28;20093;-63
2023/07/03 09:00:10;;;;;;;13.27;4.10;;;;;;;;;;5053377;28;20044;-63
2023/07/03 09:02:40;;;;;;;11.55;4.00;;;;;;;;;;5045562;28;20025;-63
2023/07/03 09:05:16;;;;;;;13.18;4.38;;;;;;;;;;5052580;28;20374;-62
2023/07/03 09:07:44;;;;;;;11.02;4.03;;;;;;;;;;5044652;28;20112;-63
2023/07/03 09:10:26;;;;;;;12.30;4.40;;;;;;;;;;5052079;28;20055;-62
2023/07/03 09:12:59;;;;;;;12.18;4.22;;;;;;;;;;5051379;28;20100;-62
2023/07/03 09:15:28;;;;;;;12.98;3.97;;;;;;;;;;5043271;28;20021;-64
2023/07/03 09:17:54;;;;;;;12.15;4.05;;;;;;;;;;5043084;28;20041;-62
2023/07/03 09:20:19;;;;;;;13.20;4.20;;;;;;;;;;5048832;28;20388;-62
2023/07/03 09:22:48;;;;;;;11.18;4.05;;;;;;;;;;5051357;28;20472;-63
2023/07/03 09:25:19;;;;;;;10.07;3.95;;;;;;;;;;5051456;28;20389;-62
2023/07/03 09:27:46;;;;;;;13.27;4.20;;;;;;;;;;5052140;28;20013;-62
2023/07/03 09:30:12;;;;;;;10.60;4.00;;;;;;;;;;5048326;28;20067;-62
2023/07/03 09:32:37;;;;;;;10.93;4.03;;;;;;;;;;5032248;28;20112;-64
2023/07/03 09:35:16;;;;;;;11.70;3.92;;;;;;;;;;5043892;28;20025;-63
2023/07/03 09:37:43;;;;;;;10.90;4.20;;;;;;;;;;5044887;28;20017;-63
2023/07/03 09:40:21;;;;;;;10.82;4.07;;;;;;;;;;5045727;28;20392;-63
2023/07/03 09:42:46;;;;;;;13.77;3.95;;;;;;;;;;5049163;28;20020;-62
2023/07/03 09:45:15;;;;;;;12.67;4.10;;;;;;;;;;5050479;28;20013;-63
2023/07/03 09:47:41;;;;;;;14.07;4.60;;;;;;;;;;5048431;28;20037;-63
2023/07/03 09:50:06;;;;;;;13.05;4.00;;;;;;;;;;5047968;28;20055;-63
2023/07/03 09:52:32;;;;;;;11.85;4.18;;;;;;;;;;5050142;28;20025;-61
2023/07/03 09:55:00;;;;;;;10.40;3.85;;;;;;;;;;5050800;28;20108;-63
2023/07/03 09:57:26;;;;;;;10.25;4.32;;;;;;;;;;5051122;28;20511;-62
2023/07/03 09:59:51;;;;;;;;;;;;;;;;;;5049200;28;20108;-63
2023/07/03 10:02:20;;;;;;;11.93;3.70;;;;;;;;;;5050670;28;20004;-63
2023/07/03 10:04:45;;;;;;;11.32;3.65;;;;;;;;;;5049273;28;20083;-64
2023/07/03 10:07:13;;;;;;;11.70;3.70;;;;;;;;;;5051048;28;20104;-64
2023/07/03 10:09:39;;;;;;;10.57;3.60;;;;;;;;;;5043158;28;20022;-64
2023/07/03 10:12:09;;;;;;;13.25;3.92;;;;;;;;;;5030850;28;20063;-62
2023/07/03 10:14:38;;;;;;;12.85;3.90;;;;;;;;;;5030624;28;20052;-63
2023/07/03 10:17:04;;;;;;;14.02;3.92;;;;;;;;;;5032937;28;20489;-63
2023/07/03 10:19:30;;;;;;;12.02;4.15;;;;;;;;;;5041398;28;20040;-62
2023/07/03 10:21:55;;;;;;;14.38;3.83;;;;;;;;;;5045198;28;20029;-64
2023/07/03 10:24:20;;;;;;;11.60;3.95;;;;;;;;;;5050431;28;20039;-62
2023/07/03 10:26:48;;;;;;;10.00;3.53;;;;;;;;;;5047816;28;20180;-62
2023/07/03 10:29:26;;;;;;;9.93;3.53;;;;;;;;;;5043268;28;20451;-63
2023/07/03 10:31:53;;;;;;;12.25;3.95;;;;;;;;;;5030642;28;20489;-63
2023/07/03 10:34:25;;;;;;;11.95;3.72;;;;;;;;;;5033835;28;20017;-63
2023/07/03 10:36:50;;;;;;;;;;;;;;;;;;5048243;28;20539;-62
2023/07/03 10:39:18;;;;;;;13.55;4.28;;;;;;;;;;5045606;28;20123;-62
2023/07/03 10:41:56;;;;;;;9.93;3.83;;;;;;;;;;5042817;28;20017;-64
2023/07/03 10:44:26;;;;;;;14.13;4.85;;;;;;;;;;5044639;28;20124;-63
2023/07/03 10:46:54;;;;;;;11.95;4.30;;;;;;;;;;5030629;28;20029;-62
2023/07/03 10:49:24;;;;;;;12.32;4.30;;;;;;;;;;5030558;28;20079;-63
2023/07/03 10:52:10;;;;;;;13.95;4.30;;;;;;;;;;5030452;28;20480;-62
2023/07/03 10:54:42;;;;;;;14.50;4.18;;;;;;;;;;5035812;28;20025;-62
2023/07/03 10:57:09;;;;;;;11.43;4.53;;;;;;;;;;5044907;28;20508;-61
2023/07/03 10:59:37;;;;;;;13.73;4.50;;;;;;;;;;5044932;28;20028;-62
2023/07/03 11:02:05;;;;;;;12.98;4.32;;;;;;;;;;5038086;28;20310;-62
2023/07/03 11:04:38;;;;;;;11.52;4.10;;;;;;;;;;5040536;28;20035;-63
2023/07/03 11:07:07;;;;;;;12.52;3.80;;;;;;;;;;5030021;28;20093;-64
2023/07/03 11:09:39;;;;;;;11.60;4.05;;;;;;;;;;5036026;28;20035;-62
2023/07/03 11:12:04;;;;;;;;;;;;;;;;;;5041639;28;20098;-61
2023/07/03 11:14:40;;;;;;;13.52;3.97;;;;;;;;;;5034635;28;19955;-61
2023/07/03 11:17:11;;;;;;;12.70;4.20;;;;;;;;;;5048150;28;20053;-62
2023/07/03 11:19:42;;;;;;;10.95;3.85;;;;;;;;;;5054562;28;20017;-62
2023/07/03 11:22:24;;;;;;;14.45;3.60;;;;;;;;;;5054002;28;20027;-63
2023/07/03 11:24:57;;;;;;;11.35;3.65;;;;;;;;;;5049681;28;20025;-61
2023/07/03 11:27:32;;;;;;;12.32;3.92;;;;;;;;;;5040147;28;20076;-62
2023/07/03 11:29:58;;;;;;;10.80;3.70;;;;;;;;;;5034684;28;20108;-63
2023/07/03 11:32:24;;;;;;;12.77;4.35;;;;;;;;;;5034054;28;20426;-63
2023/07/03 11:34:49;;;;;;;13.27;4.07;;;;;;;;;;5044587;28;20063;-63
2023/07/03 11:37:14;;;;;;;;;;;;;;;;;;5050743;28;20020;-63
2023/07/03 11:39:49;;;;;;;10.18;3.75;;;;;;;;;;5035576;28;19908;-63
2023/07/03 11:42:21;;;;;;;13.93;4.47;;;;;;;;;;5045260;28;20098;-63
2023/07/03 11:44:47;;;;;;;12.25;3.97;;;;;;;;;;5036286;28;20025;-62
2023/07/03 11:47:16;;;;;;;10.40;4.10;;;;;;;;;;5033483;28;20109;-62
2023/07/03 11:49:47;;;;;;;12.93;4.25;;;;;;;;;;5033345;28;20036;-62
2023/07/03 11:52:13;;;;;;;11.80;4.05;;;;;;;;;;5032572;28;20033;-64
2023/07/03 11:54:39;;;;;;;12.65;4.05;;;;;;;;;;5036731;28;20104;-62
2023/07/03 11:57:06;;;;;;;11.02;3.50;;;;;;;;;;5051432;28;20060;-63
2023/07/03 11:59:33;;;;;;;11.23;3.63;;;;;;;;;;5046542;28;20032;-61
2023/07/03 12:02:10;;;;;;;13.02;3.58;;;;;;;;;;5047035;28;20041;-62
2023/07/03 12:04:50;;;;;;;11.52;4.22;;;;;;;;;;5048154;28;20029;-61
2023/07/03 12:07:18;;;;;;;12.32;3.88;;;;;;;;;;5043183;28;20033;-63
2023/07/03 12:09:44;;;;;;;9.40;3.85;;;;;;;;;;5051866;28;20024;-62
2023/07/03 12:12:18;;;;;;;15.30;3.88;;;;;;;;;;5040317;28;20381;-64
2023/07/03 12:14:47;;;;;;;13.52;4.00;;;;;;;;;;5051946;28;20063;-63
2023/07/03 12:17:23;;;;;;;12.07;3.80;;;;;;;;;;5051623;28;20024;-63
2023/07/03 12:19:49;;;;;;;12.20;3.83;;;;;;;;;;5052543;28;20025;-63
2023/07/03 12:22:15;;;;;;;10.77;3.60;;;;;;;;;;5044530;28;20041;-64
2023/07/03 12:24:40;;;;;;;11.15;4.20;;;;;;;;;;5036034;28;20056;-66
2023/07/03 12:27:06;;;;;;;12.40;3.70;;;;;;;;;;5052013;28;20040;-63
2023/07/03 12:29:33;;;;;;;10.43;4.03;;;;;;;;;;5047729;28;20086;-61
2023/07/03 12:32:05;;;;;;;9.40;3.70;;;;;;;;;;5046973;28;20021;-64
2023/07/03 12:34:31;;;;;;;12.57;4.28;;;;;;;;;;5042972;28;20159;-63
2023/07/03 12:36:56;;;;;;;;;;;;;;;;;;5053422;28;20025;-62
2023/07/03 12:39:21;;;;;;;11.20;4.20;;;;;;;;;;5053299;28;20229;-62
2023/07/03 12:41:47;;;;;;;13.87;3.90;;;;;;;;;;5053332;28;20079;-63
2023/07/03 12:44:12;;;;;;;10.53;3.80;;;;;;;;;;5051356;28;20078;-63
2023/07/03 12:46:38;;;;;;;11.52;4.57;;;;;;;;;;5052544;28;20025;-62
2023/07/03 12:49:11;;;;;;;12.85;4.07;;;;;;;;;;5051034;28;20032;-62
2023/07/03 12:51:38;;;;;;;13.45;4.22;;;;;;;;;;5052677;28;20021;-63
2023/07/03 12:54:03;;;;;;;12.07;4.10;;;;;;;;;;5044299;28;20017;-63
2023/07/03 12:56:29;;;;;;;11.37;3.97;;;;;;;;;;5032402;28;20025;-63
2023/07/03 12:58:55;;;;;;;11.10;3.90;;;;;;;;;;5051134;28;20027;-63
2023/07/03 13:01:20;;;;;;;11.95;3.92;;;;;;;;;;5048596;28;20066;-64
2023/07/03 13:03:47;;;;;;;10.98;3.67;;;;;;;;;;5046416;28;20056;-63
2023/07/03 13:06:16;;;;;;;13.70;4.40;;;;;;;;;;5048507;28;20035;-62
2023/07/03 13:08:45;;;;;;;10.95;4.03;;;;;;;;;;5051902;28;20025;-64
2023/07/03 13:11:11;;;;;;;11.68;4.43;;;;;;;;;;5049760;28;20646;-63
2023/07/03 13:13:36;;;;;;;9.95;3.85;;;;;;;;;;5051380;28;20104;-63
2023/07/03 13:16:01;;;;;;;;;;;;;;;;;;5032607;28;20397;-65
2023/07/03 13:18:26;;;;;;;10.73;3.63;;;;;;;;;;5038572;28;19955;-62
2023/07/03 13:20:51;;;;;;;11.53;4.20;;;;;;;;;;5051778;28;20024;-63
2023/07/03 13:23:16;;;;;;;11.27;3.78;;;;;;;;;;5046497;28;20048;-63
2023/07/03 13:25:49;;;;;;;10.87;3.90;;;;;;;;;;5040628;28;20061;-63
2023/07/03 13:28:28;;;;;;;10.73;3.88;;;;;;;;;;5043533;28;20029;-64
2023/07/03 13:31:11;;;;;;;9.75;3.50;;;;;;;;;;5045556;28;20028;-62
2023/07/03 13:33:37;;;;;;;11.55;3.67;;;;;;;;;;5038966;28;20398;-63
2023/07/03 13:36:19;;;;;;;9.63;3.60;;;;;;;;;;5059024;28;20029;-62
2023/07/03 13:38:44;;;;;;;12.45;4.00;;;;;;;;;;5053717;28;20017;-62
2023/07/03 13:41:09;;;;;;;10.67;4.20;;;;;;;;;;5056374;28;20424;-62
2023/07/03 13:43:34;;;;;;;10.07;4.13;;;;;;;;;;5047145;28;20393;-63
2023/07/03 13:46:00;;;;;;;;;;;;;;;;;;5054802;28;20262;-64
2023/07/03 13:48:26;;;;;;;11.07;3.53;;;;;;;;;;5056852;28;19913;-63
2023/07/03 13:50:52;;;;;;;11.13;3.47;;;;;;;;;;5050652;28;20506;-62
2023/07/03 13:53:18;;;;;;;13.23;3.60;;;;;;;;;;5044309;28;20017;-63
2023/07/03 13:55:43;;;;;;;10.05;3.65;;;;;;;;;;5038352;28;20055;-62
2023/07/03 13:58:08;;;;;;;14.05;3.50;;;;;;;;;;5044310;28;20082;-63
2023/07/03 14:00:33;;;;;;;9.97;3.60;;;;;;;;;;5048954;28;20023;-62
2023/07/03 14:02:58;;;;;;;12.20;3.55;;;;;;;;;;5035974;28;20021;-62
2023/07/03 14:05:24;;;;;;;10.27;3.67;;;;;;;;;;5045614;28;20091;-63
2023/07/03 14:07:49;;;;;;;;;;;;;;;;;;5038787;28;20026;-64
2023/07/03 14:10:14;;;;;;;12.45;4.00;;;;;;;;;;5035143;28;20368;-62
2023/07/03 14:12:40;;;;;;;11.70;3.67;;;;;;;;;;5031648;28;20501;-62
2023/07/03 14:15:11;;;;;;;11.60;3.60;;;;;;;;;;5031871;28;20079;-64
2023/07/03 14:17:36;;;;;;;12.52;3.60;;;;;;;;;;5036223;28;20148;-63
2023/07/03 14:20:02;;;;;;;13.03;3.60;;;;;;;;;;5043428;28;20099;-60
2023/07/03 14:22:27;;;;;;;13.05;3.65;;;;;;;;;;5045496;28;20055;-63
2023/07/03 14:24:52;;;;;;;;;;;;;;;;;;5038189;28;20324;-63
2023/07/03 14:27:18;;;;;;;13.48;4.28;;;;;;;;;;5047103;28;19939;-63
2023/07/03 14:29:43;;;;;;;11.10;3.92;;;;;;;;;;5047832;28;20405;-61
2023/07/03 14:32:08;;;;;;;11.02;3.20;;;;;;;;;;5047134;28;20185;-62